createdAt,value
2022-11-23T00:01:30.577Z,69.72
2022-11-23T00:04:00.254Z,68.82
2022-11-23T00:06:26.955Z,70.38
2022-11-23T00:08:54.312Z,68.28
2022-11-23T00:11:23.043Z,75.95
2022-11-23T00:13:49.764Z,69.30
2022-11-23T00:16:19.237Z,77.60
2022-11-23T00:18:45.712Z,71.20
2022-11-23T00:21:15.075Z,67.00
2022-11-23T00:23:41.809Z,70.88
2022-11-23T00:26:08.599Z,67.75
2022-11-23T00:28:38.625Z,73.60
2022-11-23T00:31:06.501Z,75.88
2022-11-23T00:33:33.239Z,75.68
2022-11-23T00:36:08.563Z,68.10
2022-11-23T00:38:35.035Z,68.82
2022-11-23T00:41:10.913Z,75.97
2022-11-23T00:43:37.320Z,66.00
2022-11-23T00:46:10.136Z,68.03
2022-11-23T00:48:37.602Z,74.00
2022-11-23T00:51:07.162Z,65.00
2022-11-23T00:53:34.226Z,64.05
2022-11-23T00:56:00.754Z,71.38
2022-11-23T00:58:27.571Z,64.68
2022-11-23T01:01:09.601Z,61.42
2022-11-23T01:03:38.722Z,65.47
2022-11-23T01:06:16.786Z,66.82
2022-11-23T01:08:43.668Z,62.60
2022-11-23T01:11:12.573Z,68.88
2022-11-23T01:13:40.858Z,61.22
2022-11-23T01:16:13.058Z,65.05
2022-11-23T01:18:39.460Z,68.15
2022-11-23T01:21:06.104Z,64.32
2022-11-23T01:23:32.571Z,72.10
2022-11-23T01:26:05.689Z,70.68
2022-11-23T01:28:32.547Z,67.13
2022-11-23T01:31:14.818Z,75.25
2022-11-23T01:33:41.535Z,59.38
2022-11-23T01:36:19.964Z,68.97
2022-11-23T01:38:47.869Z,60.58
2022-11-23T01:41:17.558Z,69.47
2022-11-23T01:43:44.655Z,61.35
2022-11-23T01:46:12.085Z,75.00
2022-11-23T01:48:46.848Z,67.28
2022-11-23T01:51:16.647Z,70.82
2022-11-23T01:53:44.386Z,65.05
2022-11-23T01:56:15.403Z,63.40
2022-11-23T01:58:46.282Z,70.35
2022-11-23T02:01:14.358Z,65.30
2022-11-23T02:03:43.453Z,63.78
2022-11-23T02:06:16.366Z,63.47
2022-11-23T02:08:43.770Z,62.33
2022-11-23T02:11:12.742Z,68.85
2022-11-23T02:13:39.777Z,66.05
2022-11-23T02:16:06.362Z,63.63
2022-11-23T02:18:35.624Z,65.18
2022-11-23T02:21:03.424Z,66.32
2022-11-23T02:23:47.812Z,70.30
2022-11-23T02:26:44.027Z,68.45
2022-11-23T02:29:16.184Z,65.30
2022-11-23T02:31:42.577Z,60.28
2022-11-23T02:34:09.127Z,69.85
2022-11-23T02:36:47.431Z,63.03
2022-11-23T02:39:18.552Z,61.13
2022-11-23T02:41:48.807Z,68.55
2022-11-23T02:44:44.223Z,63.63
2022-11-23T02:47:11.677Z,65.05
2022-11-23T02:49:40.698Z,62.40
2022-11-23T02:52:08.298Z,70.75
2022-11-23T02:54:35.220Z,62.30
2022-11-23T02:57:01.782Z,58.47
2022-11-23T02:59:29.278Z,60.60
2022-11-23T03:01:55.956Z,63.40
2022-11-23T03:04:27.534Z,68.63
2022-11-23T03:06:54.406Z,57.25
2022-11-23T03:09:20.839Z,67.68
2022-11-23T03:11:47.287Z,64.32
2022-11-23T03:14:13.721Z,66.43
2022-11-23T03:16:40.085Z,59.75
2022-11-23T03:19:06.533Z,64.65
2022-11-23T03:21:32.957Z,64.28
2022-11-23T03:23:59.365Z,61.35
2022-11-23T03:26:25.801Z,70.38
2022-11-23T03:28:52.186Z,66.90
2022-11-23T03:31:18.556Z,60.40
2022-11-23T03:33:44.956Z,62.92
2022-11-23T03:36:11.369Z,66.15
2022-11-23T03:38:37.725Z,64.13
2022-11-23T03:41:04.138Z,67.28
2022-11-23T03:43:30.558Z,67.90
2022-11-23T03:45:56.976Z,62.33
2022-11-23T03:48:23.459Z,62.05
2022-11-23T03:50:49.874Z,62.33
2022-11-23T03:53:16.324Z,60.90
2022-11-23T03:55:42.688Z,56.40
2022-11-23T03:58:09.126Z,56.22
2022-11-23T04:00:35.658Z,60.53
2022-11-23T04:03:02.231Z,61.38
2022-11-23T04:05:28.777Z,61.35
2022-11-23T04:07:55.186Z,58.55
2022-11-23T04:10:21.959Z,58.15
2022-11-23T04:12:54.220Z,55.95
2022-11-23T04:15:20.865Z,60.13
2022-11-23T04:17:47.457Z,59.17
2022-11-23T04:20:14.798Z,65.88
2022-11-23T04:22:41.343Z,58.88
2022-11-23T04:25:08.300Z,60.97
2022-11-23T04:27:34.726Z,67.38
2022-11-23T04:30:01.119Z,59.22
2022-11-23T04:32:27.540Z,61.50
2022-11-23T04:34:53.973Z,51.80
2022-11-23T04:37:20.369Z,62.50
2022-11-23T04:39:46.794Z,53.08
2022-11-23T04:42:14.000Z,56.70
2022-11-23T04:44:40.392Z,66.38
2022-11-23T04:47:07.488Z,57.78
2022-11-23T04:49:34.185Z,59.03
2022-11-23T04:52:00.816Z,54.80
2022-11-23T04:54:27.207Z,54.58
2022-11-23T04:56:54.205Z,56.78
2022-11-23T04:59:22.097Z,61.95
2022-11-23T05:01:49.336Z,58.47
2022-11-23T05:04:17.937Z,55.70
2022-11-23T05:06:45.193Z,51.33
2022-11-23T05:09:11.868Z,53.80
2022-11-23T05:11:38.413Z,55.05
2022-11-23T05:14:05.053Z,53.92
2022-11-23T05:16:31.437Z,51.75
2022-11-23T05:18:57.809Z,57.20
2022-11-23T05:21:24.181Z,58.30
2022-11-23T05:23:50.644Z,52.97
2022-11-23T05:26:17.072Z,57.00
2022-11-23T05:28:43.465Z,51.17
2022-11-23T05:31:10.202Z,50.60
2022-11-23T05:33:36.904Z,49.30
2022-11-23T05:36:03.734Z,65.00
2022-11-23T05:38:30.138Z,52.90
2022-11-23T05:40:56.559Z,50.80
2022-11-23T05:43:22.944Z,48.63
2022-11-23T05:45:49.788Z,53.30
2022-11-23T05:48:16.284Z,54.35
2022-11-23T05:50:42.683Z,52.00
2022-11-23T05:53:09.870Z,53.20
2022-11-23T05:55:36.396Z,61.38
2022-11-23T05:58:03.729Z,54.70
2022-11-23T06:00:30.212Z,54.60
2022-11-23T06:03:01.513Z,50.67
2022-11-23T06:05:29.005Z,52.33
2022-11-23T06:07:55.926Z,51.25
2022-11-23T06:10:23.047Z,46.90
2022-11-23T06:12:50.028Z,53.28
2022-11-23T06:15:17.896Z,50.35
2022-11-23T06:17:44.639Z,51.50
2022-11-23T06:20:11.406Z,51.35
2022-11-23T06:22:37.792Z,47.13
2022-11-23T06:25:04.420Z,47.13
2022-11-23T06:27:30.860Z,49.40
2022-11-23T06:29:57.296Z,49.92
2022-11-23T06:32:23.705Z,54.65
2022-11-23T06:34:50.139Z,54.05
2022-11-23T06:37:16.637Z,56.22
2022-11-23T06:39:43.124Z,53.75
2022-11-23T06:42:38.558Z,57.45
2022-11-23T06:44:55.957Z,55.78
2022-11-23T06:47:26.445Z,48.00
2022-11-23T06:49:53.126Z,53.88
2022-11-23T06:52:19.612Z,46.53
2022-11-23T06:54:46.410Z,49.80
2022-11-23T06:57:13.016Z,56.55
2022-11-23T06:59:44.315Z,46.55
2022-11-23T07:02:12.132Z,47.45
2022-11-23T07:04:38.537Z,45.35
2022-11-23T07:07:05.114Z,53.33
2022-11-23T07:09:31.841Z,53.55
2022-11-23T07:11:58.500Z,53.25
2022-11-23T07:14:24.892Z,49.42
2022-11-23T07:16:51.596Z,53.60
2022-11-23T07:19:17.960Z,51.17
2022-11-23T07:21:45.718Z,45.70
2022-11-23T07:24:12.181Z,50.72
2022-11-23T07:26:38.574Z,54.55
2022-11-23T07:29:05.022Z,54.38
2022-11-23T07:31:31.496Z,53.53
2022-11-23T07:33:57.928Z,51.13
2022-11-23T07:36:24.732Z,49.88
2022-11-23T07:38:51.133Z,55.50
2022-11-23T07:41:17.571Z,56.83
2022-11-23T07:43:43.970Z,53.40
2022-11-23T07:46:10.350Z,46.58
2022-11-23T07:48:36.894Z,53.80
2022-11-23T07:51:03.572Z,51.33
2022-11-23T07:53:30.248Z,50.88
2022-11-23T07:56:00.582Z,46.50
2022-11-23T07:58:27.366Z,52.17
2022-11-23T08:00:53.792Z,41.13
2022-11-23T08:03:27.685Z,54.80
2022-11-23T08:05:54.783Z,51.03
2022-11-23T08:08:21.186Z,43.20
2022-11-23T08:10:53.000Z,44.97
2022-11-23T08:13:20.962Z,51.53
2022-11-23T08:15:53.231Z,49.65
2022-11-23T08:18:21.645Z,45.92
2022-11-23T08:20:48.159Z,45.67
2022-11-23T08:23:14.606Z,44.80
2022-11-23T08:25:41.069Z,52.67
2022-11-23T08:28:07.525Z,51.97
2022-11-23T08:30:34.421Z,47.67
2022-11-23T08:33:08.272Z,48.05
2022-11-23T08:35:36.502Z,46.95
2022-11-23T08:38:03.997Z,47.65
2022-11-23T08:40:31.130Z,48.45
2022-11-23T08:42:57.563Z,46.92
2022-11-23T08:45:24.461Z,47.08
2022-11-23T08:47:51.368Z,48.75
2022-11-23T08:50:18.114Z,43.58
2022-11-23T08:52:44.624Z,54.03
2022-11-23T08:55:11.591Z,56.60
2022-11-23T08:57:38.420Z,51.25
2022-11-23T09:00:05.852Z,45.17
2022-11-23T09:02:32.353Z,44.55
2022-11-23T09:04:58.800Z,43.67
2022-11-23T09:07:25.241Z,45.13
2022-11-23T09:09:51.656Z,43.95
2022-11-23T09:12:18.071Z,42.33
2022-11-23T09:14:44.464Z,41.20
2022-11-23T09:17:10.900Z,43.97
2022-11-23T09:19:37.262Z,47.03
2022-11-23T09:22:03.710Z,45.80
2022-11-23T09:24:30.252Z,36.72
2022-11-23T09:26:56.913Z,39.92
2022-11-23T09:29:25.318Z,38.67
2022-11-23T09:31:51.809Z,44.78
2022-11-23T09:34:18.204Z,41.90
2022-11-23T09:36:44.598Z,43.97
2022-11-23T09:39:11.712Z,41.65
2022-11-23T09:41:50.176Z,40.97
2022-11-23T09:44:55.354Z,44.53
2022-11-23T09:47:28.835Z,42.85
2022-11-23T09:50:03.143Z,42.35
2022-11-23T09:52:30.754Z,41.55
2022-11-23T09:55:03.226Z,38.78
2022-11-23T09:57:33.658Z,41.45
2022-11-23T10:00:29.365Z,41.83
2022-11-23T10:02:55.795Z,37.95
2022-11-23T10:05:25.357Z,37.08
2022-11-23T10:08:13.227Z,38.50
2022-11-23T10:10:44.397Z,43.10
2022-11-23T10:13:28.793Z,43.17
2022-11-23T10:16:21.230Z,40.33
2022-11-23T10:19:15.460Z,39.35
2022-11-23T10:22:20.028Z,36.33
2022-11-23T10:24:50.851Z,36.67
2022-11-23T10:27:20.666Z,36.75
2022-11-23T10:29:48.860Z,37.42
2022-11-23T10:32:31.119Z,39.65
2022-11-23T10:35:04.122Z,37.15
2022-11-23T10:37:32.162Z,42.78
2022-11-23T10:39:58.777Z,36.55
2022-11-23T10:42:32.176Z,40.60
2022-11-23T10:45:00.965Z,37.00
2022-11-23T10:47:39.193Z,43.63
2022-11-23T10:50:27.554Z,40.53
2022-11-23T10:52:57.850Z,38.78
2022-11-23T10:55:28.548Z,38.53
2022-11-23T10:57:56.132Z,41.50
2022-11-23T11:00:30.043Z,34.85
2022-11-23T11:02:58.687Z,34.97
2022-11-23T11:06:07.096Z,40.10
2022-11-23T11:08:20.903Z,42.58
2022-11-23T11:10:58.979Z,38.70
2022-11-23T11:13:41.785Z,37.55
2022-11-23T11:16:35.864Z,38.03
2022-11-23T11:19:36.010Z,37.47
2022-11-23T11:22:24.485Z,41.42
2022-11-23T11:24:51.284Z,37.20
2022-11-23T11:27:22.742Z,36.40
2022-11-23T11:29:52.737Z,39.10
2022-11-23T11:32:38.722Z,42.97
2022-11-23T11:35:26.922Z,40.83
2022-11-23T11:38:00.002Z,35.35
2022-11-23T11:40:33.317Z,40.67
2022-11-23T11:43:02.640Z,53.63
2022-11-23T11:45:38.602Z,49.35
2022-11-23T11:48:14.876Z,45.75
2022-11-23T11:50:53.661Z,36.17
2022-11-23T11:53:53.211Z,37.70
2022-11-23T11:56:30.274Z,37.88
2022-11-23T11:59:23.852Z,38.83
2022-11-23T12:01:50.200Z,39.40
2022-11-23T12:04:35.711Z,35.75
2022-11-23T12:07:09.606Z,37.83
2022-11-23T12:09:42.391Z,34.45
2022-11-23T12:12:16.054Z,33.33
2022-11-23T12:14:43.349Z,36.20
2022-11-23T12:17:33.548Z,38.47
2022-11-23T12:20:24.418Z,37.17
2022-11-23T12:23:18.979Z,38.80
2022-11-23T12:25:58.573Z,44.30
2022-11-23T12:28:52.682Z,36.70
2022-11-23T12:32:04.297Z,48.05
2022-11-23T12:34:48.367Z,34.08
2022-11-23T12:37:31.375Z,32.20
2022-11-23T12:40:11.074Z,38.20
2022-11-23T12:43:12.707Z,33.60
2022-11-23T12:45:48.381Z,37.90
2022-11-23T12:48:20.650Z,38.05
2022-11-23T12:50:59.020Z,36.92
2022-11-23T12:53:42.723Z,37.35
2022-11-23T12:56:47.335Z,36.90
2022-11-23T12:59:17.289Z,38.78
2022-11-23T13:01:53.416Z,34.78
2022-11-23T13:04:37.510Z,35.67
2022-11-23T13:07:49.458Z,35.10
2022-11-23T13:13:16.223Z,34.78
2022-11-23T13:16:05.298Z,32.83
2022-11-23T13:19:13.241Z,35.65
2022-11-23T13:21:44.452Z,35.25
2022-11-23T13:24:31.542Z,39.25
2022-11-23T13:27:31.434Z,37.88
2022-11-23T13:30:01.466Z,39.88
2022-11-23T13:32:40.390Z,35.97
2022-11-23T13:35:18.775Z,35.55
2022-11-23T13:37:54.283Z,38.72
2022-11-23T13:40:22.499Z,37.65
2022-11-23T13:42:51.947Z,35.42
2022-11-23T13:45:25.880Z,34.58
2022-11-23T13:48:55.445Z,41.95
2022-11-23T13:51:06.309Z,39.67
2022-11-23T13:53:42.950Z,48.50
2022-11-23T13:56:29.166Z,49.50
2022-11-23T13:58:59.028Z,40.08
2022-11-23T14:02:03.121Z,37.17
2022-11-23T14:04:48.193Z,37.60
2022-11-23T14:07:27.364Z,33.92
2022-11-23T14:10:21.341Z,36.17
2022-11-23T14:13:08.582Z,36.67
2022-11-23T14:15:38.780Z,34.20
2022-11-23T14:18:32.826Z,33.47
2022-11-23T14:21:14.735Z,36.35
2022-11-23T14:24:15.719Z,34.50
2022-11-23T14:26:42.395Z,38.53
2022-11-23T14:29:17.915Z,36.22
2022-11-23T14:32:02.636Z,37.20
2022-11-23T14:34:37.794Z,35.65
2022-11-23T14:37:22.425Z,31.58
2022-11-23T14:40:03.112Z,38.88
2022-11-23T14:42:31.056Z,35.78
2022-11-23T14:45:03.937Z,35.95
2022-11-23T14:47:32.073Z,33.42
2022-11-23T14:49:58.900Z,39.83
2022-11-23T14:52:31.811Z,39.08
2022-11-23T14:55:01.572Z,35.05
2022-11-23T14:57:46.645Z,41.03
2022-11-23T15:00:43.941Z,37.97
2022-11-23T15:03:48.682Z,36.30
2022-11-23T15:06:12.730Z,35.30
2022-11-23T15:08:50.429Z,33.38
2022-11-23T15:11:27.349Z,36.08
2022-11-23T15:14:04.671Z,37.38
2022-11-23T15:16:40.049Z,32.55
2022-11-23T15:19:27.569Z,39.10
2022-11-23T15:21:55.513Z,36.05
2022-11-23T15:24:28.526Z,39.33
2022-11-23T15:27:12.068Z,34.05
2022-11-23T15:29:39.835Z,31.60
2022-11-23T15:32:32.655Z,34.17
2022-11-23T15:35:06.795Z,34.83
2022-11-23T15:37:41.511Z,32.92
2022-11-23T15:40:13.636Z,35.33
2022-11-23T15:42:40.892Z,38.28
2022-11-23T15:45:33.955Z,35.22
2022-11-23T15:48:05.117Z,30.00
2022-11-23T15:50:34.293Z,31.13
2022-11-23T15:53:01.835Z,31.73
2022-11-23T15:55:30.150Z,33.53
2022-11-23T15:57:57.275Z,34.60
2022-11-23T16:00:26.158Z,33.28
2022-11-23T16:02:53.047Z,31.77
2022-11-23T16:05:23.806Z,33.80
2022-11-23T16:08:01.357Z,33.37
2022-11-23T16:10:33.403Z,33.42
2022-11-23T16:13:01.918Z,36.67
2022-11-23T16:15:37.585Z,35.22
2022-11-23T16:18:25.174Z,33.55
2022-11-23T16:20:55.971Z,35.33
2022-11-23T16:23:28.727Z,37.80
2022-11-23T16:25:59.395Z,35.08
2022-11-23T16:28:38.172Z,31.57
2022-11-23T16:31:05.091Z,33.60
2022-11-23T16:33:31.600Z,34.67
2022-11-23T16:35:58.280Z,36.35
2022-11-23T16:38:25.750Z,31.92
2022-11-23T16:40:52.361Z,32.13
2022-11-23T16:43:19.044Z,34.47
2022-11-23T16:45:47.750Z,35.55
2022-11-23T16:48:26.134Z,36.38
2022-11-23T16:50:57.005Z,32.53
2022-11-23T16:53:26.750Z,37.70
2022-11-23T16:55:54.557Z,38.80
2022-11-23T16:58:22.157Z,37.17
2022-11-23T17:00:49.580Z,39.22
2022-11-23T17:03:17.441Z,42.08
2022-11-23T17:05:43.908Z,42.17
2022-11-23T17:08:10.510Z,35.42
2022-11-23T17:10:38.942Z,37.53
2022-11-23T17:13:11.180Z,37.65
2022-11-23T17:15:37.989Z,38.25
2022-11-23T17:18:04.526Z,33.10
2022-11-23T17:20:31.132Z,35.70
2022-11-23T17:23:00.948Z,38.35
2022-11-23T17:25:27.835Z,37.20
2022-11-23T17:27:54.354Z,40.92
2022-11-23T17:30:22.273Z,41.53
2022-11-23T17:32:49.560Z,40.88
2022-11-23T17:35:16.847Z,37.30
2022-11-23T17:37:43.446Z,43.63
2022-11-23T17:40:21.421Z,35.33
2022-11-23T17:42:48.005Z,39.72
2022-11-23T17:45:14.862Z,42.88
2022-11-23T17:47:43.073Z,44.58
2022-11-23T17:50:13.804Z,36.30
2022-11-23T17:52:45.066Z,43.47
2022-11-23T17:55:12.702Z,40.92
2022-11-23T17:57:39.246Z,41.33
2022-11-23T18:00:12.180Z,40.85
2022-11-23T18:02:38.596Z,41.08
2022-11-23T18:05:05.291Z,43.58
2022-11-23T18:07:31.794Z,46.75
2022-11-23T18:09:58.343Z,44.80
2022-11-23T18:12:24.741Z,45.05
2022-11-23T18:14:51.227Z,38.75
2022-11-23T18:17:18.826Z,43.00
2022-11-23T18:19:45.248Z,38.83
2022-11-23T18:22:11.640Z,39.53
2022-11-23T18:24:38.166Z,41.70
2022-11-23T18:27:04.633Z,38.90
2022-11-23T18:29:31.489Z,38.60
2022-11-23T18:31:58.057Z,43.67
2022-11-23T18:34:24.507Z,46.50
2022-11-23T18:36:51.012Z,39.42
2022-11-23T18:39:17.425Z,40.90
2022-11-23T18:41:43.834Z,39.42
2022-11-23T18:44:10.418Z,39.17
2022-11-23T18:46:36.901Z,35.88
2022-11-23T18:49:03.544Z,39.20
2022-11-23T18:51:29.985Z,36.72
2022-11-23T18:53:57.686Z,37.38
2022-11-23T18:56:24.166Z,33.80
2022-11-23T18:58:50.730Z,41.40
2022-11-23T19:01:19.790Z,34.95
2022-11-23T19:03:49.003Z,39.83
2022-11-23T19:06:17.610Z,42.13
2022-11-23T19:08:50.205Z,43.88
2022-11-23T19:11:27.370Z,33.97
2022-11-23T19:13:56.445Z,42.45
2022-11-23T19:16:25.186Z,38.90
2022-11-23T19:18:59.342Z,41.55
2022-11-23T19:21:28.601Z,47.33
2022-11-23T19:23:56.767Z,42.92
2022-11-23T19:26:24.173Z,39.30
2022-11-23T19:28:51.936Z,44.90
2022-11-23T19:31:23.809Z,46.38
2022-11-23T19:33:52.396Z,48.38
2022-11-23T19:36:21.907Z,45.92
2022-11-23T19:38:49.253Z,54.42
2022-11-23T19:41:16.995Z,47.88
2022-11-23T19:43:43.448Z,51.75
2022-11-23T19:46:12.647Z,50.03
2022-11-23T19:48:40.285Z,52.70
2022-11-23T19:51:11.745Z,51.50
2022-11-23T19:53:39.949Z,46.50
2022-11-23T19:56:30.340Z,48.60
2022-11-23T19:58:58.595Z,51.42
2022-11-23T20:01:31.993Z,55.85
2022-11-23T20:04:08.012Z,52.17
2022-11-23T20:06:37.147Z,60.88
2022-11-23T20:09:09.705Z,47.00
2022-11-23T20:11:38.794Z,49.65
2022-11-23T20:14:06.112Z,49.92
2022-11-23T20:16:33.576Z,49.83
2022-11-23T20:19:02.632Z,50.67
2022-11-23T20:21:30.754Z,49.60
2022-11-23T20:24:05.242Z,49.85
2022-11-23T20:26:33.428Z,50.67
2022-11-23T20:29:00.488Z,50.00
2022-11-23T20:31:29.138Z,57.13
2022-11-23T20:33:56.577Z,53.58
2022-11-23T20:36:28.683Z,55.70
2022-11-23T20:38:56.242Z,52.67
2022-11-23T20:41:28.522Z,58.85
2022-11-23T20:43:57.407Z,53.70
2022-11-23T20:46:53.604Z,55.58
2022-11-23T20:49:12.089Z,51.67
2022-11-23T20:51:38.784Z,57.55
2022-11-23T20:54:07.354Z,64.45
2022-11-23T20:56:33.875Z,56.90
2022-11-23T20:59:00.611Z,58.50
2022-11-23T21:01:28.057Z,56.78
2022-11-23T21:03:59.396Z,59.58
2022-11-23T21:06:26.817Z,51.33
2022-11-23T21:08:54.611Z,58.10
2022-11-23T21:11:45.277Z,53.00
2022-11-23T21:14:17.768Z,60.90
2022-11-23T21:16:55.071Z,53.47
2022-11-23T21:19:24.301Z,52.00
2022-11-23T21:21:50.839Z,57.80
2022-11-23T21:24:17.656Z,56.83
2022-11-23T21:26:44.171Z,53.85
2022-11-23T21:29:11.428Z,56.95
2022-11-23T21:31:40.176Z,56.72
2022-11-23T21:34:10.404Z,56.10
2022-11-23T21:36:41.380Z,62.42
2022-11-23T21:39:10.420Z,58.83
2022-11-23T21:41:37.980Z,55.60
2022-11-23T21:44:09.220Z,60.60
2022-11-23T21:46:40.392Z,55.22
2022-11-23T21:49:07.944Z,61.75
2022-11-23T21:51:35.559Z,56.05
2022-11-23T21:54:05.406Z,64.10
2022-11-23T21:56:32.335Z,64.78
2022-11-23T21:58:59.316Z,61.97
2022-11-23T22:01:29.542Z,61.22
2022-11-23T22:03:59.946Z,57.83
2022-11-23T22:06:26.609Z,60.58
2022-11-23T22:08:55.091Z,59.70
2022-11-23T22:11:27.140Z,62.03
2022-11-23T22:13:56.499Z,62.10
2022-11-23T22:16:26.321Z,60.38
2022-11-23T22:18:55.792Z,64.57
2022-11-23T22:21:24.934Z,62.22
2022-11-23T22:23:51.502Z,61.08
2022-11-23T22:26:19.341Z,61.88
2022-11-23T22:28:48.067Z,60.85
2022-11-23T22:31:18.019Z,62.03
2022-11-23T22:33:46.006Z,59.75
2022-11-23T22:36:15.078Z,60.55
2022-11-23T22:38:42.170Z,64.35
2022-11-23T22:41:14.149Z,64.57
2022-11-23T22:43:40.991Z,67.40
2022-11-23T22:46:13.232Z,62.95
2022-11-23T22:48:42.822Z,65.78
2022-11-23T22:51:11.806Z,65.35
2022-11-23T22:53:44.582Z,63.55
2022-11-23T22:56:21.075Z,68.32
2022-11-23T22:58:48.655Z,64.35
2022-11-23T23:01:17.963Z,63.88
2022-11-23T23:03:45.257Z,64.82
2022-11-23T23:06:17.196Z,59.25
2022-11-23T23:08:44.056Z,65.40
2022-11-23T23:11:10.659Z,68.25
2022-11-23T23:13:37.410Z,69.47
2022-11-23T23:16:07.337Z,67.70
2022-11-23T23:18:34.329Z,67.38
2022-11-23T23:21:10.915Z,73.72
2022-11-23T23:23:43.097Z,72.40
2022-11-23T23:26:10.627Z,70.13
2022-11-23T23:28:37.380Z,73.93
2022-11-23T23:31:06.614Z,74.18
2022-11-23T23:33:33.773Z,75.70
2022-11-23T23:36:08.171Z,73.80
2022-11-23T23:38:36.221Z,74.20
2022-11-23T23:41:02.899Z,72.00
2022-11-23T23:43:29.755Z,73.03
2022-11-23T23:45:58.960Z,75.57
2022-11-23T23:48:28.558Z,73.40
2022-11-23T23:50:55.604Z,73.00
2022-11-23T23:53:22.238Z,77.13
2022-11-23T23:55:59.540Z,84.72
2022-11-23T23:58:26.091Z,78.63
